Tiempo atmosférico en la estación meteorológica de Valencia De Don Juan, León (788 m.)



Fecha
DESCASC
Temp. máxima en grados centígrados (hora)
DESCASC
Temp. mínima en grados centígrados (hora)
DESCASC
Temp. media en grados centígrados
DESCASC
Racha de viento máxima en m/sg (hora)
DESCASC
Velocidad máxima media en intervalos de 10 minutos(hora)
DESCASC
Precipitaciones diarias en mm
DESCASC
Precipitaciones de 00:00 a 06:00 en mm
DESCASC
Precipitaciones de 06:00 a 12:00 en mm
DESCASC
Precipitaciones de 12:00 a 18:00 en mm
DESCASC
Precipitaciones de 18:00 a 24:00 en mm
DESCASC
25-01-2021 9.7 (16:40) 5.4 (00:00) 7.5 7.5 (00:20) 5.56 (04:50) 0.6 0 0 0.6 0
16-01-2021 -1.7 (17:00) -5.9 (-00:0) -3.8 2.5 (16:20) 1.39 (13:30) 0.2 0 0 0.2 0
12-01-2021 5.4 (16:10) -7.2 (-00:0) -0.9 4.72 (19:10) 3.89 (19:10) 0 0 0 0 0
26-01-2021 10.7 (16:50) 5.4 (00:00) 8 5.83 (00:30) 4.72 (00:40) 0 0 0 0 0
24-01-2021 9.6 (13:40) 3.2 (00:00) 6.4 13.61 (04:20) 9.17 (03:30) 0 0 0 0 0
23-01-2021 9.3 (19:50) 2.2 (00:00) 5.8 16.94 (14:40) 12.22 (13:30) 0 0 0 0 0
22-01-2021 8.3 (01:20) 2.3 (00:00) 5.3 26.94 (02:50) 16.94 (02:30) 1.6 1.6 0 0 0
21-01-2021 11.2 (15:50) 5.6 (00:00) 8.4 15.83 (20:20) 11.39 (20:30) 0 0 0 0 0
20-01-2021 8.7 (16:00) 2.6 (00:00) 5.6 15.28 (14:20) 11.11 (09:10) 0.4 0.2 0.2 0 0
19-01-2021 2.8 (23:59) -4.6 (-00:0) -0.9 8.06 (23:40) 6.11 (23:30) 0.2 0 0.2 0 0
18-01-2021 3.7 (17:00) -5.8 (-00:0) -1.1 2.5 (06:50) 1.94 (06:50) 0 0 0 0 0
17-01-2021 2 (17:30) -5.4 (-00:0) -1.7 3.89 (16:20) 3.06 (16:20) 0 0 0 0 0
15-01-2021 -1.2 (16:40) -7 (-00:0) -4.1 2.5 (07:40) 1.67 (07:50) 0 0 0 0 0
14-01-2021 0.1 (16:30) -6.3 (04:50) -3.1 4.17 (16:20) 3.06 (17:10) 0 0 0 0 0
13-01-2021 5.7 (16:10) -7.1 (-00:0) -0.7 4.17 (19:10) 4.17 (19:20) 0 0 0 0 0
28-12-2020 6.9 (14:30) 0.6 (00:00) 3.8 23.61 (01:20) 15 (01:20) 0.2 0.2 0 0 0
11-01-2021 6.4 (16:30) -3.7 (-00:0) 1.4 8.33 (00:20) 6.11 (00:20) 0 0 0 0 0
10-01-2021 5.9 (15:20) -1.2 (09:00) 2.4 15 (13:30) 11.39 (13:30) 0 0 0 0 0
09-01-2021 2.7 (16:30) -4.3 (-00:0) -0.8 14.72 (15:40) 11.39 (23:10) 0 0 0 0 0
08-01-2021 3.5 (15:30) -9 (-00:0) -2.8 14.17 (14:30) 10.83 (14:30) 0 0 0 0 0
07-01-2021 3.6 (15:50) -7.1 (-00:0) -1.8 8.33 (20:30) 6.94 (19:40) 0 0 0 0 0
06-01-2021 4.5 (14:30) -4.8 (-00:0) -0.2 5 (20:50) 4.17 (22:20) 0 0 0 0 0
05-01-2021 5.9 (16:00) -4.7 (-00:0) 0.6 6.11 (14:50) 3.61 (13:50) 0 0 0 0 0
04-01-2021 4.6 (15:30) -3.6 (-00:0) 0.5 9.72 (12:10) 6.67 (12:10) 0 0 0 0 0
03-01-2021 5.8 (15:50) -2.3 (-00:0) 1.8 12.5 (14:00) 8.89 (14:00) 0 0 0 0 0
02-01-2021 4.7 (14:30) -4 (-00:0) 0.3 10.28 (16:00) 7.22 (16:00) 0 0 0 0 0
01-01-2021 5.4 (16:00) -2 (-00:0) 1.7 14.44 (16:20) 10 (16:20) 0 0 0 0 0
31-12-2020 7.7 (14:30) 0 (00:00) 3.8 13.06 (11:40) 8.61 (11:40) 0 0 0 0 0
30-12-2020 6.2 (16:10) -1.5 (-00:0) 2.3 10.56 (15:10) 7.78 (12:00) 0 0 0 0 0
29-12-2020 5.2 (14:30) -1.4 (-00:0) 1.9 15.28 (15:10) 10.28 (15:10) 0 0 0 0 0

Gráficas

Temp. máximas Temp. mínimas Temp. medias Precipitaciones Rachas de viento máximas Velocidades máximas media en intervalos de 10 minutos

Datos horarios

Fecha y hora oficial Temperatura (ºC) Velocidad del viento (km/h) Dirección del viento Racha (km/h) Dirección de racha Precipitación (mm) Presión (hPa) Tendencia (hPa) Humedad (%)
2021-01-26 23:00:00 9.8 0 Calma 7 Sudoeste 0 -- -- 95
2021-01-26 22:00:00 9.8 6 Sudoeste 13 Sudoeste 0 -- -- 95
2021-01-26 21:00:00 9.9 9 Sur 12 Sur 0 -- -- 95
2021-01-26 20:00:00 10.2 6 Sur 9 Sur 0 -- -- 94
2021-01-26 19:00:00 10.2 0 Calma 7 Este 0 -- -- 94
2021-01-26 18:00:00 10.3 4 Nordeste 6 Norte 0 -- -- 94
2021-01-26 17:00:00 10.6 0 Calma 5 Oeste 0 -- -- 96
2021-01-26 16:00:00 9.6 3 Noroeste 6 Noroeste 0 -- -- 97
2021-01-26 15:00:00 8.4 2 Sudoeste 6 Noroeste 0 -- -- 97
2021-01-26 14:00:00 7.9 0 Calma 5 Nordeste 0 -- -- 97
2021-01-26 13:00:00 7.4 4 Noroeste 7 Norte 0 -- -- 97
2021-01-26 12:00:00 6.8 4 Norte 7 Norte 0 -- -- 97
2021-01-26 11:00:00 6.2 6 Norte 9 Noroeste 0 -- -- 97
2021-01-26 10:00:00 5.6 2 Norte 8 Norte 0 -- -- 97
2021-01-26 09:00:00 5.7 0 Calma 8 Nordeste 0 -- -- 96
2021-01-26 08:00:00 5.5 7 Nordeste 9 Nordeste 0 -- -- 96
2021-01-26 07:00:00 5.6 4 Norte 8 Este 0 -- -- 96
2021-01-26 06:00:00 5.7 7 Este 14 Nordeste 0 -- -- 96
2021-01-26 05:00:00 5.6 11 Nordeste 17 Nordeste 0 -- -- 96
2021-01-26 04:00:00 5.5 9 Norte 14 Norte 0 -- -- 96
2021-01-26 03:00:00 6 4 Norte 11 Noroeste 0 -- -- 95
2021-01-26 02:00:00 6.6 0 Calma 17 Sudeste 0 -- -- 95
2021-01-26 01:00:00 6.6 15 Sudeste 21 Sudeste 0 -- -- 96
2021-01-26 00:00:00 7.1 8 Este 13 Este 0 -- -- 96
2021-01-25 23:00:00 7.1 4 Este 8 Sudeste 0 -- -- 95
2021-01-25 22:00:00 6.9 9 Sudoeste 11 Sur 0 -- -- 95
2021-01-25 21:00:00 7.6 7 Sur 11 Sur 0 -- -- 93
2021-01-25 20:00:00 8.5 3 Oeste 6 Oeste 0 -- -- 91
2021-01-25 19:00:00 8.8 0 Calma -- -- 0 -- -- 90
2021-01-25 18:00:00 9.1 3 Noroeste 10 Sudoeste 0 -- -- 89
2021-01-25 17:00:00 9.7 3 Sudoeste 7 Sudoeste 0 -- -- 86
2021-01-25 16:00:00 9.2 4 Noroeste 14 Norte 0 -- -- 90
2021-01-25 15:00:00 8.6 14 Norte 18 Norte 0 -- -- 94
2021-01-25 14:00:00 8.4 10 Norte 24 Norte 0.2 -- -- 96
2021-01-25 13:00:00 7.1 15 Norte 19 Norte 0.4 -- -- 95
2021-01-25 12:00:00 7.3 6 Norte 12 Norte 0 -- -- 96
2021-01-25 11:00:00 7.1 8 Norte 11 Noroeste 0 -- -- 95
2021-01-25 10:00:00 7.2 3 Norte 8 Norte 0 -- -- 96
2021-01-25 09:00:00 7.2 4 Oeste 15 Sudoeste 0 -- -- 95
2021-01-25 08:00:00 7.2 12 Sudoeste 21 Sudoeste 0 -- -- 96
2021-01-25 07:00:00 6.7 11 Sudoeste 24 Sudoeste 0 -- -- 96
2021-01-25 06:00:00 6.3 16 Sudoeste 26 Sudoeste 0 -- -- 96
2021-01-25 05:00:00 5.9 17 Sur 26 Sur 0 -- -- 95
2021-01-25 04:00:00 5.6 15 Sur 22 Sur 0 -- -- 95
2021-01-25 03:00:00 5.5 14 Sur 22 Sudoeste 0 -- -- 94
2021-01-25 02:00:00 5.5 16 Sudoeste 24 Sudoeste 0 -- -- 93
2021-01-25 01:00:00 5.7 17 Sudoeste 27 Sudoeste 0 -- -- 91
2021-01-25 00:00:00 6.2 16 Sudoeste 24 Sudoeste 0 -- -- 83
2021-01-24 23:00:00 6 18 Sudoeste 26 Sudoeste 0 -- -- 85
2021-01-24 22:00:00 6 19 Sudoeste 26 Sudoeste 0 -- -- 84
2021-01-24 21:00:00 6 18 Sudoeste 36 Oeste 0 -- -- 80
2021-01-24 20:00:00 6.8 22 Sudoeste 29 Oeste 0 -- -- 79
2021-01-24 19:00:00 7 10 Sudoeste 32 Sudoeste 0 -- -- 82
2021-01-24 18:00:00 7.6 22 Sudoeste 36 Oeste 0 -- -- 80
2021-01-24 17:00:00 8.4 26 Sudoeste 42 Oeste 0 -- -- 74
2021-01-24 16:00:00 9.5 29 Sudoeste 41 Sudoeste 0 -- -- 68
2021-01-24 15:00:00 8.9 26 Sudoeste 35 Sudoeste 0 -- -- 68
2021-01-24 14:00:00 9.3 14 Oeste 21 Oeste 0 -- -- 61
2021-01-24 13:00:00 7.9 16 Sudoeste 26 Sudoeste 0 -- -- 65
2021-01-24 12:00:00 7.5 18 Sudoeste 29 Sur 0 -- -- 66
2021-01-24 11:00:00 5.6 11 Oeste 16 Oeste 0 -- -- 73
2021-01-24 10:00:00 4.6 9 Sudoeste 26 Oeste 0 -- -- 78
2021-01-24 09:00:00 3.3 14 Oeste 30 Oeste 0 -- -- 83
2021-01-24 08:00:00 3.9 12 Oeste 26 Sur 0 -- -- 83
2021-01-24 07:00:00 3.8 12 Sudoeste 24 Oeste 0 -- -- 83
2021-01-24 06:00:00 4.7 12 Oeste 36 Oeste 0 -- -- 80
2021-01-24 05:00:00 5.4 25 Oeste 49 Oeste 0 -- -- 79
2021-01-24 04:00:00 6.4 26 Oeste 49 Oeste 0 -- -- 78
2021-01-24 03:00:00 5.6 21 Oeste 30 Oeste 0 -- -- 79
2021-01-24 02:00:00 5.9 21 Oeste 31 Oeste 0 -- -- 76
2021-01-24 01:00:00 5.9 20 Oeste 36 Oeste 0 -- -- 79
2021-01-24 00:00:00 6.1 24 Oeste 35 Oeste 0 -- -- 80
2021-01-23 23:00:00 6.3 22 Sudoeste 32 Sudoeste 0 -- -- 80
2021-01-23 22:00:00 7 16 Oeste 32 Sudoeste 0 -- -- 73
2021-01-23 21:00:00 8.5 24 Oeste 48 Oeste 0 -- -- 68
2021-01-23 20:00:00 9.3 23 Oeste 42 Sudoeste 0 -- -- 86
2021-01-23 19:00:00 9.1 32 Sudoeste 47 Sudoeste 0 -- -- 92
2021-01-23 18:00:00 8.4 32 Sudoeste 53 Sudoeste 0 -- -- 92
2021-01-23 17:00:00 8.3 31 Sudoeste 55 Sudoeste 0 -- -- 90
2021-01-23 16:00:00 7.9 30 Sudoeste 57 Sudoeste 0 -- -- 91
2021-01-23 15:00:00 7.6 36 Sudoeste 61 Sudoeste 0 -- -- 87
2021-01-23 14:00:00 7.7 38 Sudoeste 58 Sudoeste 0 -- -- 83
2021-01-23 13:00:00 7 29 Sudoeste 41 Sudoeste 0 -- -- 86
2021-01-23 12:00:00 5.4 28 Sudoeste 46 Sudoeste 0 -- -- 88
2021-01-23 11:00:00 5.5 33 Sudoeste 50 Sudoeste 0 -- -- 83
2021-01-23 10:00:00 5.1 33 Sudoeste 43 Sudoeste 0 -- -- 83
2021-01-23 09:00:00 4.4 24 Sudoeste 35 Sudoeste 0 -- -- 86
2021-01-23 08:00:00 3.9 23 Sudoeste 39 Sudoeste 0 -- -- 84
2021-01-23 07:00:00 3.5 24 Sudoeste 36 Sudoeste 0 -- -- 84
2021-01-23 06:00:00 3.8 29 Sudoeste 41 Sur 0 -- -- 82
2021-01-23 05:00:00 3.3 22 Sudoeste 35 Sudoeste 0 -- -- 83
2021-01-23 04:00:00 3.1 22 Sudoeste 32 Sudoeste 0 -- -- 85
2021-01-23 03:00:00 3.5 20 Sudoeste 35 Sudoeste 0 -- -- 85
2021-01-23 02:00:00 3 20 Sudoeste 31 Sudoeste 0 -- -- 88
2021-01-23 01:00:00 2.5 23 Sur 35 Sur 0 -- -- 89
2021-01-23 00:00:00 2.8 21 Sudoeste 32 Sudoeste 0 -- -- 85
2021-01-22 23:00:00 2.8 14 Sudoeste 31 Sudoeste 0 -- -- 85
2021-01-22 22:00:00 3.3 20 Sudoeste 28 Sudoeste 0 -- -- 84
2021-01-22 21:00:00 3.8 17 Sudoeste 29 Sudoeste 0 -- -- 78
2021-01-22 20:00:00 4 12 Sudoeste 22 Oeste 0 -- -- 73
2021-01-22 19:00:00 5.5 19 Oeste 30 Oeste 0 -- -- 68
2021-01-22 18:00:00 6.1 20 Noroeste 46 Oeste 0 -- -- 64
2021-01-22 17:00:00 7.6 34 Oeste 52 Noroeste 0 -- -- 55
2021-01-22 16:00:00 7.6 33 Noroeste 53 Oeste 0 -- -- 58
2021-01-22 15:00:00 7.4 38 Oeste 53 Oeste 0 -- -- 58
2021-01-22 14:00:00 6.9 30 Noroeste 50 Oeste 0 -- -- 63
2021-01-22 13:00:00 6.5 28 Noroeste 50 Noroeste 0 -- -- 73
2021-01-22 12:00:00 6 33 Oeste 48 Oeste 0 -- -- 73
2021-01-22 11:00:00 5 28 Oeste 40 Oeste 0 -- -- 77
2021-01-22 10:00:00 4.2 22 Oeste 35 Noroeste 0 -- -- 80
2021-01-22 09:00:00 2.4 13 Sudoeste 32 Sudoeste 0 -- -- 90
2021-01-22 08:00:00 2.9 24 Sudoeste 55 Sudoeste 0 -- -- 89
2021-01-22 07:00:00 3.3 31 Sudoeste 53 Sudoeste 0 -- -- 86
2021-01-22 06:00:00 3.9 36 Sudoeste 85 Oeste 0 -- -- 84
2021-01-22 05:00:00 4.5 36 Oeste 87 Oeste 0 -- -- 83
2021-01-22 04:00:00 5.7 34 Oeste 67 Sudoeste 0.2 -- -- 85
2021-01-22 03:00:00 6.5 54 Oeste 97 Oeste 1.4 -- -- 79
2021-01-22 02:00:00 8.2 35 Sudoeste 53 Sur 0 -- -- 83
2021-01-22 01:00:00 8 30 Sudoeste 53 Sudoeste 0 -- -- 84
2021-01-22 00:00:00 7.8 30 Sudoeste 46 Sudoeste 0 -- -- 88
2021-01-21 23:00:00 7.4 19 Sudoeste 37 Sudoeste 0 -- -- 85
2021-01-21 22:00:00 7.3 26 Sudoeste 50 Sudoeste 0 -- -- 82
2021-01-21 21:00:00 8 38 Sudoeste 57 Sudoeste 0 -- -- 77
2021-01-21 20:00:00 8 35 Sudoeste 51 Sudoeste 0 -- -- 78
2021-01-21 19:00:00 9 36 Sudoeste 48 Sudoeste 0 -- -- 75
2021-01-21 18:00:00 10.1 34 Sudoeste 53 Sudoeste 0 -- -- 78
2021-01-21 17:00:00 10 37 Sudoeste 56 Sudoeste 0 -- -- 84
2021-01-21 16:00:00 11 35 Sudoeste 55 Sudoeste 0 -- -- 80
2021-01-21 15:00:00 10 29 Sudoeste 46 Sudoeste 0 -- -- 85
2021-01-21 14:00:00 9.1 33 Sudoeste 55 Sudoeste 0 -- -- 85
2021-01-21 13:00:00 8.8 36 Sudoeste 54 Sudoeste 0 -- -- 86
2021-01-21 12:00:00 7.5 30 Sudoeste 53 Sudoeste 0 -- -- 92
2021-01-21 11:00:00 7.1 31 Sudoeste 46 Sudoeste 0 -- -- 94
2021-01-21 10:00:00 6.7 33 Sudoeste 49 Sudoeste 0 -- -- 94
2021-01-21 09:00:00 6.6 27 Sudoeste 43 Sudoeste 0 -- -- 90
2021-01-21 08:00:00 6.2 25 Sudoeste 44 Sudoeste 0 -- -- 89
2021-01-21 07:00:00 6.2 28 Sudoeste 45 Sudoeste 0 -- -- 90
2021-01-21 06:00:00 5.9 28 Sudoeste 39 Sudoeste 0 -- -- 91
2021-01-21 05:00:00 5.9 29 Sudoeste 40 Sudoeste 0 -- -- 91
2021-01-21 04:00:00 5.7 21 Sudoeste 33 Sudoeste 0 -- -- 92
2021-01-21 03:00:00 6.2 22 Sudoeste 36 Sudoeste 0 -- -- 91
2021-01-21 02:00:00 6 23 Sudoeste 37 Sudoeste 0 -- -- 92
2021-01-21 01:00:00 6.3 22 Sudoeste 35 Sudoeste 0 -- -- 94
2021-01-21 00:00:00 6.4 22 Sudoeste 38 Sudoeste 0 -- -- 93
2021-01-20 23:00:00 6.5 23 Sudoeste 33 Sudoeste 0 -- -- 91
2021-01-20 22:00:00 6.6 20 Sudoeste 35 Sudoeste 0 -- -- 92
2021-01-20 21:00:00 6.4 23 Sudoeste 35 Sur 0 -- -- 93
2021-01-20 20:00:00 6.6 24 Sur 36 Sudoeste 0 -- -- 89
2021-01-20 19:00:00 6.8 26 Sudoeste 37 Sudoeste 0 -- -- 88
2021-01-20 18:00:00 7.4 28 Sudoeste 48 Sudoeste 0 -- -- 85
2021-01-20 17:00:00 7.9 38 Sudoeste 53 Sudoeste 0 -- -- 88
2021-01-20 16:00:00 8.7 34 Sudoeste 50 Sudoeste 0 -- -- 87
2021-01-20 15:00:00 7.6 32 Sudoeste 55 Sur 0 -- -- 91
2021-01-20 14:00:00 8 37 Sudoeste 53 Sudoeste 0 -- -- 84
2021-01-20 13:00:00 6.6 33 Sur 51 Sur 0 -- -- 88
2021-01-20 12:00:00 5.5 37 Sur 51 Sur 0 -- -- 87
2021-01-20 11:00:00 5.3 35 Sur 45 Sur 0 -- -- 85
2021-01-20 10:00:00 5.1 30 Sur 54 Sur 0 -- -- 87
2021-01-20 09:00:00 4.7 36 Sur 51 Sur 0 -- -- 90
2021-01-20 08:00:00 4.3 34 Sur 50 Sur 0 -- -- 91
2021-01-20 07:00:00 3.3 18 Sur 28 Sur 0.2 -- -- 92
2021-01-20 06:00:00 3.1 25 Sur 36 Sudeste 0.2 -- -- 90
2021-01-20 05:00:00 2.8 29 Sur 43 Sudeste 0 -- -- 90
2021-01-20 04:00:00 3.2 32 Sudeste 43 Sudeste 0 -- -- 88
2021-01-20 03:00:00 3.5 31 Sur 40 Sur 0 -- -- 96
2021-01-20 02:00:00 3.1 25 Sur 34 Sudeste 0 -- -- 97
2021-01-20 01:00:00 3.2 20 Sur 29 Sur 0 -- -- 97
2021-01-20 00:00:00 2.8 17 Sur 29 Sur 0 -- -- 97
2021-01-19 23:00:00 1.1 17 Sur 25 Sur 0 -- -- 98
2021-01-19 22:00:00 0.7 10 Sur 18 Sur 0 -- -- 97
2021-01-19 21:00:00 0.2 6 Sur 10 Sur 0 -- -- 97
2021-01-19 20:00:00 0.1 6 Este 8 Este 0 -- -- 97
2021-01-19 19:00:00 0.4 3 Sudeste 13 Sudeste 0 -- -- 97
2021-01-19 18:00:00 1.2 12 Sudeste 15 Sudeste 0 -- -- 97
2021-01-19 17:00:00 1.6 4 Sudoeste 12 Sur 0 -- -- 97
2021-01-19 16:00:00 1.7 6 Sur 13 Sur 0 -- -- 98
2021-01-19 15:00:00 0.3 7 Sur 13 Sur 0 -- -- 98
2021-01-19 14:00:00 -0.4 2 Sudeste 6 Sur 0 -- -- 97
2021-01-19 13:00:00 -0.8 3 Noroeste 9 Nordeste 0 -- -- 97
2021-01-19 12:00:00 -1.3 2 Norte 8 Este 0.2 -- -- 97
2021-01-19 11:00:00 -2 4 Sudeste 6 Este 0 -- -- 96
2021-01-19 10:00:00 -2.5 4 Este 6 Este 0 -- -- 96
2021-01-19 09:00:00 -2.7 4 Sudeste 10 Sudeste 0 -- -- 96
2021-01-19 08:00:00 -2.2 5 Sudeste 8 Sudeste 0 -- -- 96
2021-01-19 07:00:00 -2.4 5 Este 10 Este 0 -- -- 96
2021-01-19 06:00:00 -2.7 3 Norte 4 Nordeste 0 -- -- 96
2021-01-19 05:00:00 -3.2 0 Calma 6 Este 0 -- -- 96
2021-01-19 04:00:00 -4.1 4 Nordeste 6 Nordeste 0 -- -- 95
2021-01-19 03:00:00 -4.4 4 Norte 6 Norte 0 -- -- 94
2021-01-19 02:00:00 -4.2 6 Norte 8 Norte 0 -- -- 95
2021-01-19 01:00:00 -2.6 3 Nordeste 6 Nordeste 0 -- -- 96
2021-01-19 00:00:00 -2.1 6 Nordeste 7 Nordeste 0 -- -- 95
2021-01-18 23:00:00 -0.7 0 Calma -- -- 0 -- -- 96
2021-01-18 22:00:00 0.3 0 Calma 5 Sudeste 0 -- -- 96
2021-01-18 21:00:00 1.6 4 Sur 6 Sur 0 -- -- 97
2021-01-18 20:00:00 2.1 0 Calma -- -- 0 -- -- 96
2021-01-18 19:00:00 2.6 0 Calma -- -- 0 -- -- 96
2021-01-18 18:00:00 3.4 0 Calma 4 Oeste 0 -- -- 96
2021-01-18 17:00:00 3.7 2 Oeste 8 Oeste 0 -- -- 97
2021-01-18 16:00:00 2.6 5 Oeste 9 Oeste 0 -- -- 97
2021-01-18 15:00:00 1.7 3 Noroeste 7 Norte 0 -- -- 97
2021-01-18 14:00:00 0.3 3 Noroeste 8 Oeste 0 -- -- 97
2021-01-18 13:00:00 -0.2 3 Oeste 6 Noroeste 0 -- -- 97
2021-01-18 12:00:00 -1.3 3 Oeste 5 Norte 0 -- -- 96
2021-01-18 11:00:00 -2.6 2 Norte 6 Nordeste 0 -- -- 96
2021-01-18 10:00:00 -4.3 0 Calma 0 Calma 0 -- -- 94
2021-01-18 09:00:00 -4.9 0 Calma 4 Nordeste 0 -- -- 94
2021-01-18 08:00:00 -4.5 0 Calma 9 Norte 0 -- -- 94
2021-01-18 07:00:00 -4.8 6 Norte 9 Norte 0 -- -- 95
2021-01-18 06:00:00 -5.8 6 Norte 8 Norte 0 -- -- 93
2021-01-18 05:00:00 -5.6 5 Norte 6 Norte 0 -- -- 93
2021-01-18 04:00:00 -4.4 0 Calma -- -- 0 -- -- 93
2021-01-18 03:00:00 -3.2 0 Calma -- -- 0 -- -- 95
2021-01-18 02:00:00 -1.9 0 Calma -- -- 0 -- -- 96
2021-01-18 01:00:00 -2.1 0 Calma -- -- 0 -- -- 96
2021-01-18 00:00:00 -2.4 0 Calma 0 Calma 0 -- -- 96
2021-01-17 23:00:00 -1.9 0 Calma 4 Nordeste 0 -- -- 96
2021-01-17 22:00:00 -1.8 0 Calma 10 Norte 0 -- -- 95
2021-01-17 21:00:00 -1.3 5 Sudoeste 11 Sudoeste 0 -- -- 96
2021-01-17 20:00:00 -0.8 2 Sudeste 9 Sur 0 -- -- 96
2021-01-17 19:00:00 0.6 6 Sur 9 Sur 0 -- -- 96
2021-01-17 18:00:00 1.7 5 Sudoeste 12 Sudoeste 0 -- -- 95
2021-01-17 17:00:00 1.8 8 Sudoeste 14 Sudoeste 0 -- -- 96
2021-01-17 16:00:00 0.7 9 Sudoeste 13 Sudoeste 0 -- -- 96
2021-01-17 15:00:00 -0.5 4 Sudoeste 8 Sudoeste 0 -- -- 96
2021-01-17 14:00:00 -1.8 2 Oeste 5 Oeste 0 -- -- 95
2021-01-17 13:00:00 -2.7 2 Sur 4 Sur 0 -- -- 95
2021-01-17 12:00:00 -3.6 0 Calma 5 Nordeste 0 -- -- 95
2021-01-17 11:00:00 -4.8 0 Calma 5 Norte 0 -- -- 93
2021-01-17 10:00:00 -4.9 0 Calma 5 Noroeste 0 -- -- 93
2021-01-17 09:00:00 -5.3 0 Calma -- -- 0 -- -- 93
2021-01-17 08:00:00 -5.4 0 Calma -- -- 0 -- -- 93
2021-01-17 07:00:00 -5.2 0 Calma 3 Noroeste 0 -- -- 93
2021-01-17 06:00:00 -5.1 0 Calma 4 Noroeste 0 -- -- 93
2021-01-17 05:00:00 -5.1 0 Calma 4 Noroeste 0 -- -- 93
2021-01-17 04:00:00 -4.9 0 Calma 5 Norte 0 -- -- 93
2021-01-17 03:00:00 -4.5 0 Calma 4 Nordeste 0 -- -- 94
2021-01-17 02:00:00 -4.2 2 Nordeste 7 Norte 0 -- -- 94
2021-01-17 01:00:00 -4 2 Oeste 7 Oeste 0 -- -- 94
2021-01-17 00:00:00 -3.5 3 Oeste 6 Oeste 0 -- -- 94
2021-01-16 23:00:00 -3.4 3 Oeste 5 Oeste 0 -- -- 95
2021-01-16 22:00:00 -3.3 2 Sur 5 Noroeste 0 -- -- 95
2021-01-16 21:00:00 -3.1 3 Nordeste 5 Noroeste 0 -- -- 95
2021-01-16 20:00:00 -2.4 3 Noroeste 5 Norte 0 -- -- 95
2021-01-16 19:00:00 -2 0 Calma 4 Sur 0 -- -- 95
2021-01-16 18:00:00 -2 2 Sudoeste 5 Sudoeste 0 -- -- 95
2021-01-16 17:00:00 -1.7 0 Calma 9 Sudoeste 0 -- -- 95
2021-01-16 16:00:00 -2.1 5 Sudoeste 8 Sudoeste 0 -- -- 95
2021-01-16 15:00:00 -2.6 5 Sudoeste 8 Sur 0 -- -- 95
2021-01-16 14:00:00 -3.3 3 Sur 8 Oeste 0.2 -- -- 94
2021-01-16 13:00:00 -3.8 3 Sudoeste 5 Sudoeste 0 -- -- 94
2021-01-16 12:00:00 -4.4 3 Norte 5 Norte 0 -- -- 94
2021-01-16 11:00:00 -5.1 0 Calma 6 Sur 0 -- -- 93
2021-01-16 10:00:00 -5.6 0 Calma 5 Sudoeste 0 -- -- 93
2021-01-16 09:00:00 -5.8 2 Sur 5 Sudeste 0 -- -- 93
2021-01-16 08:00:00 -5.7 3 Sudeste 6 Este 0 -- -- 93
2021-01-16 07:00:00 -5.5 2 Sudeste 5 Sur 0 -- -- 93
2021-01-16 06:00:00 -5.2 0 Calma 4 Sudoeste 0 -- -- 93
2021-01-16 05:00:00 -5.2 2 Sur 5 Sur 0 -- -- 93
2021-01-16 04:00:00 -5.3 0 Calma 4 Sur 0 -- -- 93
2021-01-16 03:00:00 -5.3 0 Calma 4 Nordeste 0 -- -- 93
2021-01-16 02:00:00 -5.1 0 Calma 5 Este 0 -- -- 93
2021-01-16 01:00:00 -4.7 0 Calma 4 Oeste 0 -- -- 93
2021-01-16 00:00:00 -4.3 2 Norte 7 Norte 0 -- -- 94
2021-01-15 23:00:00 -3.7 4 Norte 6 Norte 0 -- -- 94
2021-01-15 22:00:00 -3.2 4 Noroeste 5 Noroeste 0 -- -- 95
2021-01-15 21:00:00 -2.9 0 Calma 5 Oeste 0 -- -- 95
2021-01-15 20:00:00 -2.5 2 Norte 5 Norte 0 -- -- 95
2021-01-15 19:00:00 -2 0 Calma 6 Sudoeste 0 -- -- 95
2021-01-15 18:00:00 -1.5 3 Sudoeste 6 Sudoeste 0 -- -- 95
2021-01-15 17:00:00 -1.2 4 Sudoeste 7 Sudoeste 0 -- -- 95
2021-01-15 16:00:00 -1.4 5 Oeste 8 Sudoeste 0 -- -- 95
2021-01-15 15:00:00 -1.9 4 Sudoeste 6 Sudoeste 0 -- -- 95
2021-01-15 14:00:00 -2.6 2 Noroeste 5 Norte 0 -- -- 95
2021-01-15 13:00:00 -3.7 3 Sudoeste 5 Sudoeste 0 -- -- 94
2021-01-15 12:00:00 -4.9 2 Este 6 Este 0 -- -- 94
2021-01-15 11:00:00 -5.7 4 Norte 7 Norte 0 -- -- 92
2021-01-15 10:00:00 -6.7 0 Calma 5 Nordeste 0 -- -- 92
2021-01-15 09:00:00 -6.8 2 Oeste 6 Noroeste 0 -- -- 92
2021-01-15 08:00:00 -6.6 5 Este 9 Este 0 -- -- 92
2021-01-15 07:00:00 -6.1 0 Calma 5 Sudeste 0 -- -- 92
2021-01-15 06:00:00 -6.1 3 Sudeste 8 Este 0 -- -- 92
2021-01-15 05:00:00 -5.6 0 Calma 6 Norte 0 -- -- 93
2021-01-15 04:00:00 -5.4 3 Este 6 Sur 0 -- -- 93
2021-01-15 03:00:00 -5.4 2 Sudeste 5 Sur 0 -- -- 93
2021-01-15 02:00:00 -5.1 4 Este 8 Nordeste 0 -- -- 93
2021-01-15 01:00:00 -4.7 4 Este 8 Este 0 -- -- 94
2021-01-15 00:00:00 -4.8 4 Este 8 Nordeste 0 -- -- 93
2021-01-14 23:00:00 -4.2 5 Este 6 Este 0 -- -- 94
2021-01-14 22:00:00 -3.6 2 Nordeste 6 Sur 0 -- -- 94
2021-01-14 21:00:00 -3.2 5 Sur 8 Sur 0 -- -- 94
2021-01-14 20:00:00 -3.1 6 Sur 13 Sur 0 -- -- 94
2021-01-14 19:00:00 -2.7 4 Sur 12 Sudeste 0 -- -- 93
2021-01-14 18:00:00 -1.4 8 Sudeste 14 Sudoeste 0 -- -- 93
2021-01-14 17:00:00 -0.5 10 Sur 15 Sudoeste 0 -- -- 94
2021-01-14 16:00:00 -0.7 10 Sudoeste 13 Sudoeste 0 -- -- 95
2021-01-14 15:00:00 -1.2 6 Sudoeste 10 Sudoeste 0 -- -- 94
2021-01-14 14:00:00 -2.1 4 Sudoeste 10 Sudoeste 0 -- -- 94
2021-01-14 13:00:00 -2.9 4 Sudoeste 8 Sudoeste 0 -- -- 94
2021-01-14 12:00:00 -3.8 0 Calma -- -- 0 -- -- 93
2021-01-14 11:00:00 -4.4 0 Calma -- -- 0 -- -- 93
2021-01-14 10:00:00 -4.9 0 Calma 5 Sudoeste 0 -- -- 93
2021-01-14 09:00:00 -4.7 0 Calma 4 Sur 0 -- -- 93
2021-01-14 08:00:00 -4.7 0 Calma 3 Noroeste 0 -- -- 93
2021-01-14 07:00:00 -4.8 3 Norte 5 Noroeste 0 -- -- 92
2021-01-14 06:00:00 -5.4 3 Nordeste -- -- 0 -- -- 92
2021-01-14 05:00:00 -6.3 4 Nordeste 5 Nordeste 0 -- -- 92
2021-01-14 04:00:00 -5.3 0 Calma 6 Este 0 -- -- 92
2021-01-14 03:00:00 -4.5 3 Nordeste 8 Norte 0 -- -- 92
2021-01-14 02:00:00 -5.2 6 Norte 6 Norte 0 -- -- 90
2021-01-14 01:00:00 -4.6 3 Nordeste 7 Nordeste 0 -- -- 89
2021-01-14 00:00:00 -3.8 4 Nordeste 5 Nordeste 0 -- -- 90
2021-01-13 23:00:00 -1.9 0 Calma 4 Noroeste 0 -- -- 88
2021-01-13 22:00:00 -1.9 4 Noroeste 7 Sudeste 0 -- -- 86
2021-01-13 21:00:00 -1.1 11 Sudeste 14 Sudeste 0 -- -- 82
2021-01-13 20:00:00 0.1 10 Sudeste 15 Sudeste 0 -- -- 79
2021-01-13 19:00:00 0.2 10 Sudeste 13 Sudeste 0 -- -- 76
2021-01-13 18:00:00 3.8 9 Sur 10 Sur 0 -- -- 65
2021-01-13 17:00:00 5.4 8 Sudoeste 12 Sur 0 -- -- 59
2021-01-13 16:00:00 5.5 5 Sur 11 Oeste 0 -- -- 60
2021-01-13 15:00:00 4.9 7 Sudoeste 12 Sudoeste 0 -- -- 64
2021-01-13 14:00:00 4.1 5 Sudoeste 13 Sudoeste 0 -- -- 66
2021-01-13 13:00:00 2.7 3 Sudeste 8 Sudeste 0 -- -- 75
2021-01-13 12:00:00 -0.2 4 Oeste 8 Noroeste 0 -- -- 86
2021-01-13 11:00:00 -2.8 5 Norte 7 Nordeste 0 -- -- 89
2021-01-13 10:00:00 -5.1 2 Este 7 Nordeste 0 -- -- 92
2021-01-13 09:00:00 -6.5 0 Calma -- -- 0 -- -- 91
2021-01-13 08:00:00 -7.1 0 Calma 6 Nordeste 0 -- -- 90
2021-01-13 07:00:00 -6.3 2 Este 7 Nordeste 0 -- -- 90
2021-01-13 06:00:00 -6.6 4 Nordeste 8 Nordeste 0 -- -- 90
2021-01-13 05:00:00 -6.7 6 Norte 7 Norte 0 -- -- 88
2021-01-13 04:00:00 -6.1 4 Norte 8 Este 0 -- -- 86
2021-01-13 03:00:00 -4.5 7 Este 10 Este 0 -- -- 86
2021-01-13 02:00:00 -2.9 4 Sudeste 5 Sudeste 0 -- -- 83
2021-01-13 01:00:00 -1.7 0 Calma 8 Este 0 -- -- 83
2021-01-13 00:00:00 -2.1 5 Nordeste 8 Nordeste 0 -- -- 82
2021-01-12 23:00:00 -1.8 2 Noroeste 9 Sur 0 -- -- 81
2021-01-12 22:00:00 -1.3 8 Sur 13 Sur 0 -- -- 81
2021-01-12 21:00:00 -1.2 10 Sur 13 Sur 0 -- -- 81
2021-01-12 20:00:00 -0.7 9 Sur 17 Sur 0 -- -- 80
2021-01-12 19:00:00 1.2 13 Sur 16 Sur 0 -- -- 74
2021-01-12 18:00:00 3.9 12 Sur 15 Sur 0 -- -- 62
2021-01-12 17:00:00 5.3 9 Sudoeste 14 Sudoeste 0 -- -- 58
2021-01-12 16:00:00 5.1 9 Sudoeste 15 Sudoeste 0 -- -- 60
2021-01-12 15:00:00 4.2 9 Sudoeste 14 Sudoeste 0 -- -- 62
2021-01-12 14:00:00 3.2 10 Sudoeste 16 Oeste 0 -- -- 66
2021-01-12 13:00:00 1.9 10 Oeste 15 Sudoeste 0 -- -- 71
2021-01-12 12:00:00 -0.3 5 Sudoeste 9 Sudoeste 0 -- -- 80
2021-01-12 11:00:00 -3 3 Noroeste 5 Noroeste 0 -- -- 86
2021-01-12 10:00:00 -5.2 2 Sudeste 6 Norte 0 -- -- 90
2021-01-12 09:00:00 -7.2 5 Norte 6 Nordeste 0 -- -- 87
2021-01-12 08:00:00 -6.6 4 Norte 6 Norte 0 -- -- 90
2021-01-12 07:00:00 -6.6 5 Norte 7 Nordeste 0 -- -- 88
2021-01-12 06:00:00 -5.6 6 Nordeste 8 Nordeste 0 -- -- 89
2021-01-12 05:00:00 -5.1 4 Norte 5 Norte 0 -- -- 87
2021-01-12 04:00:00 -3.8 0 Calma 0 Calma 0 -- -- 88
2021-01-12 03:00:00 -3.4 0 Calma -- -- 0 -- -- 85
2021-01-12 02:00:00 -2.6 0 Calma 2 Oeste 0 -- -- 85
2021-01-12 01:00:00 -2.3 3 Oeste 8 Sudoeste 0 -- -- 83
2021-01-12 00:00:00 -2.4 5 Sudoeste 7 Sudoeste 0 -- -- 82
2021-01-11 23:00:00 -2.1 0 Calma 5 Oeste 0 -- -- 79
2021-01-11 22:00:00 -1 0 Calma 5 Norte 0 -- -- 76
2021-01-11 21:00:00 -0.9 4 Norte 18 Sudeste 0 -- -- 74
2021-01-11 20:00:00 -0.5 13 Sudeste 22 Sudeste 0 -- -- 74
2021-01-11 19:00:00 0.9 12 Sudeste 17 Sudeste 0 -- -- 62
2021-01-11 18:00:00 3.2 12 Este 15 Este 0 -- -- 54
2021-01-11 17:00:00 5.7 8 Sudeste 12 Este 0 -- -- 47
2021-01-11 16:00:00 5.7 3 Este 13 Sudeste 0 -- -- 46
2021-01-11 15:00:00 5.8 9 Sur 14 Sur 0 -- -- 48
2021-01-11 14:00:00 4.9 7 Sudeste 15 Sudoeste 0 -- -- 49
2021-01-11 13:00:00 4.2 7 Sur 16 Sudoeste 0 -- -- 52
2021-01-11 12:00:00 2.7 2 Noroeste 8 Oeste 0 -- -- 58
2021-01-11 11:00:00 0.4 4 Oeste 7 Noroeste 0 -- -- 68
2021-01-11 10:00:00 -0.7 3 Sudeste 5 Sudeste 0 -- -- 71
2021-01-11 09:00:00 -3.3 5 Sudeste 7 Sudoeste 0 -- -- 74
2021-01-11 08:00:00 -3.3 6 Sudoeste 8 Sudoeste 0 -- -- 73
2021-01-11 07:00:00 -3.6 4 Sudoeste 7 Sur 0 -- -- 75
2021-01-11 06:00:00 -3.4 3 Norte 9 Este 0 -- -- 75
2021-01-11 05:00:00 -2.1 7 Este 10 Este 0 -- -- 69
2021-01-11 04:00:00 -2.2 2 Sudeste 16 Este 0 -- -- 69
2021-01-11 03:00:00 -1.5 4 Este 7 Nordeste 0 -- -- 67
2021-01-11 02:00:00 -1 3 Norte 12 Nordeste 0 -- -- 65
2021-01-11 01:00:00 -1.4 8 Nordeste 30 Norte 0 -- -- 67
2021-01-11 00:00:00 0.1 23 Nordeste 35 Norte 0 -- -- 61
2021-01-10 23:00:00 0 24 Nordeste 38 Nordeste 0 -- -- 60
2021-01-10 22:00:00 0.1 25 Nordeste 36 Norte 0 -- -- 59
2021-01-10 21:00:00 0.5 28 Norte 40 Nordeste 0 -- -- 57
2021-01-10 20:00:00 0.5 31 Nordeste 41 Norte 0 -- -- 56
2021-01-10 19:00:00 0.7 28 Norte 34 Norte 0 -- -- 56
2021-01-10 18:00:00 2.5 18 Norte 39 Norte 0 -- -- 48
2021-01-10 17:00:00 4.1 30 Norte 42 Norte 0 -- -- 45
2021-01-10 16:00:00 5.1 35 Norte 48 Norte 0 -- -- 43
2021-01-10 15:00:00 5.8 36 Nordeste 52 Norte 0 -- -- 42
2021-01-10 14:00:00 5.1 36 Norte 54 Norte 0 -- -- 45
2021-01-10 13:00:00 4.8 38 Norte 49 Norte 0 -- -- 47
2021-01-10 12:00:00 4.2 36 Norte 47 Norte 0 -- -- 51
2021-01-10 11:00:00 2.7 28 Norte 37 Nordeste 0 -- -- 59
2021-01-10 10:00:00 1.4 28 Norte 36 Norte 0 -- -- 63
2021-01-10 09:00:00 -1.2 15 Nordeste 20 Nordeste 0 -- -- 75
2021-01-10 08:00:00 -0.2 9 Nordeste 14 Este 0 -- -- 76
2021-01-10 07:00:00 -0.2 11 Este 18 Nordeste 0 -- -- 78
2021-01-10 06:00:00 0.2 15 Nordeste 19 Nordeste 0 -- -- 76
2021-01-10 05:00:00 -0.1 17 Nordeste 19 Este 0 -- -- 78
2021-01-10 04:00:00 0.6 11 Nordeste 17 Nordeste 0 -- -- 75
2021-01-10 03:00:00 0.3 11 Norte 23 Norte 0 -- -- 74
2021-01-10 02:00:00 0.4 8 Norte 21 Nordeste 0 -- -- 72
2021-01-10 01:00:00 1 16 Nordeste 37 Nordeste 0 -- -- 72
2021-01-10 00:00:00 1.1 29 Nordeste 53 Nordeste 0 -- -- 70
2021-01-09 23:00:00 0.9 39 Nordeste 51 Nordeste 0 -- -- 71
2021-01-09 22:00:00 0.5 21 Nordeste 42 Nordeste 0 -- -- 72
2021-01-09 21:00:00 0.6 27 Nordeste 50 Nordeste 0 -- -- 78
2021-01-09 20:00:00 -0.1 31 Nordeste 44 Nordeste 0 -- -- 85
2021-01-09 19:00:00 -0.2 27 Nordeste 43 Nordeste 0 -- -- 85
2021-01-09 18:00:00 0.4 29 Nordeste 48 Nordeste 0 -- -- 77
2021-01-09 17:00:00 2.3 35 Nordeste 48 Nordeste 0 -- -- 58
2021-01-09 16:00:00 2.6 32 Nordeste 53 Nordeste 0 -- -- 58
2021-01-09 15:00:00 1.8 39 Nordeste 52 Nordeste 0 -- -- 63
2021-01-09 14:00:00 2.5 34 Nordeste 49 Nordeste 0 -- -- 56
2021-01-09 13:00:00 2.3 35 Nordeste 51 Nordeste 0 -- -- 53
2021-01-09 12:00:00 1.7 17 Norte 24 Norte 0 -- -- 57
2021-01-09 11:00:00 0.2 12 Nordeste 19 Nordeste 0 -- -- 64
2021-01-09 10:00:00 -0.9 16 Nordeste 19 Nordeste 0 -- -- 65
2021-01-09 09:00:00 -1.8 10 Nordeste 15 Nordeste 0 -- -- 69
2021-01-09 08:00:00 -1.6 13 Nordeste 18 Nordeste 0 -- -- 67
2021-01-09 07:00:00 -2.2 12 Nordeste 15 Nordeste 0 -- -- 69
2021-01-09 06:00:00 -2.6 10 Nordeste 15 Nordeste 0 -- -- 70
2021-01-09 05:00:00 -2.6 11 Nordeste 17 Nordeste 0 -- -- 67
2021-01-09 04:00:00 -2.3 14 Nordeste 20 Nordeste 0 -- -- 62
2021-01-09 03:00:00 -2.9 11 Nordeste 21 Nordeste 0 -- -- 65
2021-01-09 02:00:00 -3.2 14 Nordeste 21 Nordeste 0 -- -- 66
2021-01-09 01:00:00 -3.7 18 Nordeste 24 Nordeste 0 -- -- 66
2021-01-09 00:00:00 -4.3 20 Nordeste 24 Nordeste 0 -- -- 69
2021-01-08 23:00:00 -4.7 15 Nordeste 20 Nordeste 0 -- -- 71
2021-01-08 22:00:00 -5.3 14 Este 20 Nordeste 0 -- -- 73
2021-01-08 21:00:00 -4.5 14 Nordeste 17 Nordeste 0 -- -- 68
2021-01-08 20:00:00 -3.5 14 Nordeste 22 Este 0 -- -- 65
2021-01-08 19:00:00 -1.6 19 Este 25 Este 0 -- -- 59
2021-01-08 18:00:00 0.7 22 Este 37 Nordeste 0 -- -- 48
2021-01-08 17:00:00 2.8 29 Nordeste 40 Este 0 -- -- 40
2021-01-08 16:00:00 3.2 35 Este 47 Este 0 -- -- 38
2021-01-08 15:00:00 3.4 35 Este 51 Este 0 -- -- 41
2021-01-08 14:00:00 3.1 32 Nordeste 45 Nordeste 0 -- -- 43
2021-01-08 13:00:00 1.9 26 Nordeste 37 Nordeste 0 -- -- 54
2021-01-08 12:00:00 -1.5 15 Norte 20 Norte 0 -- -- 71
2021-01-08 11:00:00 -4.4 14 Norte 19 Norte 0 -- -- 84
2021-01-08 10:00:00 -7.6 5 Norte 8 Norte 0 -- -- 89
2021-01-08 09:00:00 -8.5 4 Nordeste 12 Norte 0 -- -- 87
2021-01-08 08:00:00 -8.4 5 Norte 9 Nordeste 0 -- -- 87
2021-01-08 07:00:00 -8 7 Norte 11 Norte 0 -- -- 88
2021-01-08 06:00:00 -7.8 5 Nordeste 11 Nordeste 0 -- -- 88
2021-01-08 05:00:00 -6.7 8 Nordeste 13 Norte 0 -- -- 88
2021-01-08 04:00:00 -6.6 6 Norte 13 Nordeste 0 -- -- 84
2021-01-08 03:00:00 -5.8 4 Nordeste 10 Este 0 -- -- 83
2021-01-08 02:00:00 -5.3 9 Este 16 Este 0 -- -- 79
2021-01-08 01:00:00 -5 14 Este 18 Este 0 -- -- 84
2021-01-08 00:00:00 -4.8 6 Este 10 Norte 0 -- -- 81
2021-01-07 23:00:00 -4 5 Norte 10 Norte 0 -- -- 80
2021-01-07 22:00:00 -3.4 8 Nordeste 18 Este 0 -- -- 76
2021-01-07 21:00:00 -2 19 Este 30 Este 0 -- -- 74
2021-01-07 20:00:00 -0.6 24 Este 29 Este 0 -- -- 70
2021-01-07 19:00:00 -0.3 20 Este 24 Este 0 -- -- 70
2021-01-07 18:00:00 1.6 17 Este 23 Este 0 -- -- 63
2021-01-07 17:00:00 3.2 16 Este 25 Este 0 -- -- 54
2021-01-07 16:00:00 3.6 16 Este 26 Este 0 -- -- 52
2021-01-07 15:00:00 3.4 14 Nordeste 25 Este 0 -- -- 54
2021-01-07 14:00:00 3 15 Este 22 Este 0 -- -- 58
2021-01-07 13:00:00 1.6 10 Nordeste 17 Nordeste 0 -- -- 69
2021-01-07 12:00:00 -1 10 Norte 15 Norte 0 -- -- 78
2021-01-07 11:00:00 -3.2 9 Norte 14 Norte 0 -- -- 82
2021-01-07 10:00:00 -5.8 5 Norte 11 Nordeste 0 -- -- 86
2021-01-07 09:00:00 -7 7 Norte 13 Nordeste 0 -- -- 86
2021-01-07 08:00:00 -6.4 7 Nordeste 18 Nordeste 0 -- -- 87
2021-01-07 07:00:00 -7.1 9 Norte 14 Nordeste 0 -- -- 87
2021-01-07 06:00:00 -6.1 9 Nordeste 15 Nordeste 0 -- -- 87
2021-01-07 05:00:00 -6.8 6 Norte 14 Nordeste 0 -- -- 88
2021-01-07 04:00:00 -6.1 12 Norte 14 Norte 0 -- -- 88
2021-01-07 03:00:00 -5.8 10 Nordeste 14 Nordeste 0 -- -- 87
2021-01-07 02:00:00 -5.5 10 Norte 12 Norte 0 -- -- 87
2021-01-07 01:00:00 -4.4 8 Norte 15 Norte 0 -- -- 86
2021-01-07 00:00:00 -3.6 8 Norte 13 Norte 0 -- -- 84
2021-01-06 23:00:00 -2 7 Norte 18 Este 0 -- -- 79
2021-01-06 22:00:00 -1.4 8 Nordeste 15 Sudeste 0 -- -- 75
2021-01-06 21:00:00 -0.3 14 Sudeste 18 Este 0 -- -- 72
2021-01-06 20:00:00 -0.9 13 Sudeste 16 Sudeste 0 -- -- 74
2021-01-06 19:00:00 0.6 9 Sudeste 12 Sudeste 0 -- -- 65
2021-01-06 18:00:00 2.1 7 Sudeste 9 Sudeste 0 -- -- 61
2021-01-06 17:00:00 3.8 8 Sudeste 13 Sudeste 0 -- -- 59
2021-01-06 16:00:00 2.8 4 Este 9 Este 0 -- -- 64
2021-01-06 15:00:00 4.1 5 Este 12 Sur 0 -- -- 59
2021-01-06 14:00:00 4.3 4 Sur 11 Este 0 -- -- 64
2021-01-06 13:00:00 2.4 5 Nordeste 13 Este 0 -- -- 72
2021-01-06 12:00:00 1.3 9 Este 13 Este 0 -- -- 80
2021-01-06 11:00:00 -1.1 7 Norte 9 Norte 0 -- -- 88
2021-01-06 10:00:00 -3.9 5 Noroeste 10 Nordeste 0 -- -- 89
2021-01-06 09:00:00 -4.5 7 Nordeste 12 Nordeste 0 -- -- 89
2021-01-06 08:00:00 -4.3 6 Nordeste 8 Nordeste 0 -- -- 89
2021-01-06 07:00:00 -3.8 4 Nordeste 7 Nordeste 0 -- -- 91
2021-01-06 06:00:00 -3.9 5 Norte 10 Este 0 -- -- 89
2021-01-06 05:00:00 -2.9 10 Este 12 Este 0 -- -- 90
2021-01-06 04:00:00 -2.4 6 Nordeste 13 Norte 0 -- -- 88
2021-01-06 03:00:00 -1.1 3 Noroeste 8 Este 0 -- -- 84
2021-01-06 02:00:00 -0.8 12 Este 15 Nordeste 0 -- -- 83
2021-01-06 01:00:00 -0.2 4 Norte 4 Norte 0 -- -- 78
2021-01-06 00:00:00 0.1 4 Sudoeste 9 Sur 0 -- -- 76
2021-01-05 23:00:00 0.6 4 Sudoeste 9 Sudoeste 0 -- -- 71
2021-01-05 22:00:00 1.2 7 Sudoeste 15 Sudoeste 0 -- -- 70
2021-01-05 21:00:00 1.5 10 Sur 14 Sudoeste 0 -- -- 69
2021-01-05 20:00:00 2.1 11 Sudoeste 14 Sudoeste 0 -- -- 65
2021-01-05 19:00:00 2.8 10 Sur 16 Sur 0 -- -- 58
2021-01-05 18:00:00 3.7 6 Sur 9 Sur 0 -- -- 54
2021-01-05 17:00:00 4.5 0 Calma 14 Sudoeste 0 -- -- 53
2021-01-05 16:00:00 5.9 10 Sudoeste 19 Oeste 0 -- -- 48
2021-01-05 15:00:00 5.2 11 Oeste 22 Oeste 0 -- -- 52
2021-01-05 14:00:00 4.4 12 Oeste 18 Oeste 0 -- -- 58
2021-01-05 13:00:00 3 6 Oeste 12 Oeste 0 -- -- 68
2021-01-05 12:00:00 0.5 5 Oeste 11 Noroeste 0 -- -- 79
2021-01-05 11:00:00 -1.7 5 Sudoeste 9 Sur 0 -- -- 82
2021-01-05 10:00:00 -3.8 4 Sudoeste 12 Sur 0 -- -- 87
2021-01-05 09:00:00 -4.5 6 Sudoeste 10 Sur 0 -- -- 86
2021-01-05 08:00:00 -4.1 5 Sudoeste 8 Noroeste 0 -- -- 84
2021-01-05 07:00:00 -3.6 3 Oeste 12 Noroeste 0 -- -- 85
2021-01-05 06:00:00 -3.5 8 Noroeste 13 Noroeste 0 -- -- 83
2021-01-05 05:00:00 -3.7 6 Norte 9 Norte 0 -- -- 83
2021-01-05 04:00:00 -3.8 7 Nordeste 15 Norte 0 -- -- 83
2021-01-05 03:00:00 -3.6 6 Norte 17 Noroeste 0 -- -- 83
2021-01-05 02:00:00 -3.3 8 Noroeste 13 Noroeste 0 -- -- 81
2021-01-05 01:00:00 -3 7 Oeste 12 Noroeste 0 -- -- 81
2021-01-05 00:00:00 -3.4 8 Noroeste 11 Noroeste 0 -- -- 81
2021-01-04 23:00:00 -3 5 Norte 7 Norte 0 -- -- 78
2021-01-04 22:00:00 -2.1 6 Norte 10 Noroeste 0 -- -- 75
2021-01-04 21:00:00 -1.4 6 Noroeste 8 Norte 0 -- -- 71
2021-01-04 20:00:00 -1.6 10 Norte 15 Norte 0 -- -- 70
2021-01-04 19:00:00 -0.3 14 Norte 19 Norte 0 -- -- 64
2021-01-04 18:00:00 1.8 18 Norte 32 Norte 0 -- -- 58
2021-01-04 17:00:00 4.5 14 Norte 32 Norte 0 -- -- 55
2021-01-04 16:00:00 4.4 19 Noroeste 28 Oeste 0 -- -- 56
2021-01-04 15:00:00 4.4 21 Oeste 32 Oeste 0 -- -- 57
2021-01-04 14:00:00 3.5 19 Noroeste 29 Noroeste 0 -- -- 61
2021-01-04 13:00:00 3.1 23 Noroeste 35 Noroeste 0 -- -- 66
2021-01-04 12:00:00 1.9 22 Noroeste 30 Oeste 0 -- -- 75
2021-01-04 11:00:00 -0.1 8 Oeste 13 Oeste 0 -- -- 79
2021-01-04 10:00:00 -2.1 7 Oeste 14 Oeste 0 -- -- 83
2021-01-04 09:00:00 -3.3 4 Sudoeste 15 Sudoeste 0 -- -- 83
2021-01-04 08:00:00 -3.3 9 Sudoeste 13 Oeste 0 -- -- 84
2021-01-04 07:00:00 -3 9 Sudoeste 13 Oeste 0 -- -- 82
2021-01-04 06:00:00 -2.1 9 Oeste 16 Oeste 0 -- -- 81
2021-01-04 05:00:00 -2.6 9 Oeste 13 Oeste 0 -- -- 85
2021-01-04 04:00:00 -2.3 5 Oeste 12 Noroeste 0 -- -- 86
2021-01-04 03:00:00 -2 4 Oeste 14 Sudoeste 0 -- -- 85
2021-01-04 02:00:00 -1.9 9 Sudoeste 17 Oeste 0 -- -- 85
2021-01-04 01:00:00 -2.2 7 Sur 25 Oeste 0 -- -- 82
2021-01-04 00:00:00 -0.5 11 Oeste 25 Oeste 0 -- -- 82
2021-01-03 23:00:00 -0.8 9 Noroeste 20 Noroeste 0 -- -- 83
2021-01-03 22:00:00 -0.6 13 Noroeste 21 Noroeste 0 -- -- 83
2021-01-03 21:00:00 -0.1 14 Noroeste 22 Noroeste 0 -- -- 84
2021-01-03 20:00:00 0.1 13 Noroeste 20 Noroeste 0 -- -- 84
2021-01-03 19:00:00 1.3 15 Noroeste 26 Noroeste 0 -- -- 77
2021-01-03 18:00:00 3.1 12 Oeste 26 Noroeste 0 -- -- 67
2021-01-03 17:00:00 3.8 19 Noroeste 37 Noroeste 0 -- -- 61
2021-01-03 16:00:00 5.8 23 Oeste 36 Oeste 0 -- -- 52
2021-01-03 15:00:00 4.7 26 Noroeste 43 Noroeste 0 -- -- 53
2021-01-03 14:00:00 5 32 Noroeste 45 Oeste 0 -- -- 56
2021-01-03 13:00:00 4.4 24 Oeste 38 Oeste 0 -- -- 63
2021-01-03 12:00:00 3.4 19 Oeste 30 Oeste 0 -- -- 74
2021-01-03 11:00:00 0.5 12 Oeste 16 Oeste 0 -- -- 83
2021-01-03 10:00:00 -1 8 Sudoeste 14 Oeste 0 -- -- 84
2021-01-03 09:00:00 -1.6 8 Sudoeste 16 Oeste 0 -- -- 84
2021-01-03 08:00:00 -1.6 4 Oeste 16 Noroeste 0 -- -- 86
2021-01-03 07:00:00 -1.7 5 Noroeste 17 Noroeste 0 -- -- 86
2021-01-03 06:00:00 -1.1 9 Oeste 20 Noroeste 0 -- -- 85
2021-01-03 05:00:00 -1.2 12 Noroeste 24 Norte 0 -- -- 86
2021-01-03 04:00:00 -1.4 3 Nordeste 12 Noroeste 0 -- -- 86
2021-01-03 03:00:00 -1.8 9 Noroeste 18 Norte 0 -- -- 86
2021-01-03 02:00:00 -1.3 7 Oeste 15 Noroeste 0 -- -- 84
2021-01-03 01:00:00 -1.8 12 Noroeste 24 Noroeste 0 -- -- 84
2021-01-03 00:00:00 -2.3 14 Noroeste 17 Noroeste 0 -- -- 85
2021-01-02 23:00:00 -1.8 8 Noroeste 15 Noroeste 0 -- -- 82
2021-01-02 22:00:00 -1.7 10 Noroeste 19 Noroeste 0 -- -- 81
2021-01-02 21:00:00 -1.3 10 Noroeste 13 Noroeste 0 -- -- 77
2021-01-02 20:00:00 -0.3 5 Noroeste 9 Noroeste 0 -- -- 72
2021-01-02 19:00:00 -0.7 6 Norte 14 Norte 0 -- -- 74
2021-01-02 18:00:00 1.1 12 Nordeste 21 Nordeste 0 -- -- 67
2021-01-02 17:00:00 4 20 Nordeste 33 Norte 0 -- -- 55
2021-01-02 16:00:00 4.5 26 Norte 37 Nordeste 0 -- -- 51
2021-01-02 15:00:00 4.6 23 Norte 35 Norte 0 -- -- 51
2021-01-02 14:00:00 3.9 8 Norte 19 Nordeste 0 -- -- 57